sensor_id;sensor_type;location;lat;lon;timestamp;P1;durP1;ratioP1;P2;durP2;ratioP2
31537;SDS011;18147;51.952;6.146;2022-07-23T00:00:28;8.10;;;5.07;;
31537;SDS011;18147;51.952;6.146;2022-07-23T00:02:54;8.05;;;5.40;;
31537;SDS011;18147;51.952;6.146;2022-07-23T00:05:19;9.73;;;4.38;;
31537;SDS011;18147;51.952;6.146;2022-07-23T00:07:45;6.88;;;4.72;;
31537;SDS011;18147;51.952;6.146;2022-07-23T00:10:10;11.32;;;5.18;;
31537;SDS011;18147;51.952;6.146;2022-07-23T00:12:36;9.45;;;5.78;;
31537;SDS011;18147;51.952;6.146;2022-07-23T00:15:03;6.65;;;5.00;;
31537;SDS011;18147;51.952;6.146;2022-07-23T00:17:29;5.28;;;4.68;;
31537;SDS011;18147;51.952;6.146;2022-07-23T00:19:54;6.68;;;5.07;;
31537;SDS011;18147;51.952;6.146;2022-07-23T00:22:20;7.40;;;4.72;;
31537;SDS011;18147;51.952;6.146;2022-07-23T00:24:46;10.60;;;5.05;;
31537;SDS011;18147;51.952;6.146;2022-07-23T00:27:11;7.93;;;4.72;;
31537;SDS011;18147;51.952;6.146;2022-07-23T00:29:36;9.93;;;4.85;;
31537;SDS011;18147;51.952;6.146;2022-07-23T00:32:02;7.03;;;5.35;;
31537;SDS011;18147;51.952;6.146;2022-07-23T00:34:28;6.97;;;4.75;;
31537;SDS011;18147;51.952;6.146;2022-07-23T00:36:53;9.40;;;5.50;;
31537;SDS011;18147;51.952;6.146;2022-07-23T00:39:19;8.20;;;4.75;;
31537;SDS011;18147;51.952;6.146;2022-07-23T00:41:46;8.30;;;5.45;;
31537;SDS011;18147;51.952;6.146;2022-07-23T00:44:19;7.45;;;5.03;;
31537;SDS011;18147;51.952;6.146;2022-07-23T00:46:47;9.35;;;5.57;;
31537;SDS011;18147;51.952;6.146;2022-07-23T00:49:14;7.10;;;5.20;;
31537;SDS011;18147;51.952;6.146;2022-07-23T00:51:40;9.75;;;5.70;;
31537;SDS011;18147;51.952;6.146;2022-07-23T00:54:06;8.20;;;5.20;;
31537;SDS011;18147;51.952;6.146;2022-07-23T00:56:32;8.00;;;5.50;;
31537;SDS011;18147;51.952;6.146;2022-07-23T00:58:58;5.53;;;4.88;;
31537;SDS011;18147;51.952;6.146;2022-07-23T01:01:25;8.57;;;5.53;;
31537;SDS011;18147;51.952;6.146;2022-07-23T01:03:51;11.52;;;6.55;;
31537;SDS011;18147;51.952;6.146;2022-07-23T01:06:16;9.38;;;5.75;;
31537;SDS011;18147;51.952;6.146;2022-07-23T01:08:42;7.10;;;5.18;;
31537;SDS011;18147;51.952;6.146;2022-07-23T01:11:08;9.55;;;6.70;;
31537;SDS011;18147;51.952;6.146;2022-07-23T01:13:33;8.80;;;5.60;;
31537;SDS011;18147;51.952;6.146;2022-07-23T01:15:59;9.43;;;6.35;;
31537;SDS011;18147;51.952;6.146;2022-07-23T01:18:25;11.68;;;7.03;;
31537;SDS011;18147;51.952;6.146;2022-07-23T01:20:50;10.15;;;6.78;;
31537;SDS011;18147;51.952;6.146;2022-07-23T01:23:18;11.82;;;6.00;;
31537;SDS011;18147;51.952;6.146;2022-07-23T01:25:54;10.10;;;5.93;;
31537;SDS011;18147;51.952;6.146;2022-07-23T01:28:21;9.93;;;5.78;;
31537;SDS011;18147;51.952;6.146;2022-07-23T01:30:48;12.43;;;6.75;;
31537;SDS011;18147;51.952;6.146;2022-07-23T01:33:14;9.80;;;5.63;;
31537;SDS011;18147;51.952;6.146;2022-07-23T01:35:39;14.07;;;7.30;;
31537;SDS011;18147;51.952;6.146;2022-07-23T01:38:06;9.48;;;5.90;;
31537;SDS011;18147;51.952;6.146;2022-07-23T01:40:32;13.13;;;6.90;;
31537;SDS011;18147;51.952;6.146;2022-07-23T01:42:58;10.63;;;6.35;;
31537;SDS011;18147;51.952;6.146;2022-07-23T01:45:23;8.77;;;6.40;;
31537;SDS011;18147;51.952;6.146;2022-07-23T01:47:50;10.82;;;7.82;;
31537;SDS011;18147;51.952;6.146;2022-07-23T01:50:16;11.02;;;6.57;;
31537;SDS011;18147;51.952;6.146;2022-07-23T01:53:01;14.02;;;7.53;;
31537;SDS011;18147;51.952;6.146;2022-07-23T01:55:27;17.15;;;7.00;;
31537;SDS011;18147;51.952;6.146;2022-07-23T01:57:52;17.40;;;7.30;;
31537;SDS011;18147;51.952;6.146;2022-07-23T02:00:20;11.98;;;7.43;;
31537;SDS011;18147;51.952;6.146;2022-07-23T02:02:49;10.07;;;6.22;;
31537;SDS011;18147;51.952;6.146;2022-07-23T02:05:15;10.85;;;6.95;;
31537;SDS011;18147;51.952;6.146;2022-07-23T02:07:40;12.35;;;7.25;;
31537;SDS011;18147;51.952;6.146;2022-07-23T02:10:07;9.85;;;6.22;;
31537;SDS011;18147;51.952;6.146;2022-07-23T02:12:36;14.93;;;8.32;;
31537;SDS011;18147;51.952;6.146;2022-07-23T02:15:01;10.55;;;6.80;;
31537;SDS011;18147;51.952;6.146;2022-07-23T02:17:27;10.50;;;6.45;;
31537;SDS011;18147;51.952;6.146;2022-07-23T02:19:52;12.45;;;7.07;;
31537;SDS011;18147;51.952;6.146;2022-07-23T02:22:18;9.07;;;6.43;;
31537;SDS011;18147;51.952;6.146;2022-07-23T02:24:43;11.82;;;6.40;;
31537;SDS011;18147;51.952;6.146;2022-07-23T02:27:09;11.43;;;7.15;;
31537;SDS011;18147;51.952;6.146;2022-07-23T02:29:34;11.05;;;6.72;;
31537;SDS011;18147;51.952;6.146;2022-07-23T02:32:00;9.75;;;7.10;;
31537;SDS011;18147;51.952;6.146;2022-07-23T02:34:26;10.95;;;6.53;;
31537;SDS011;18147;51.952;6.146;2022-07-23T02:36:51;12.73;;;6.50;;
31537;SDS011;18147;51.952;6.146;2022-07-23T02:39:17;8.38;;;6.38;;
31537;SDS011;18147;51.952;6.146;2022-07-23T02:41:42;10.57;;;7.43;;
31537;SDS011;18147;51.952;6.146;2022-07-23T02:44:09;13.25;;;6.47;;
31537;SDS011;18147;51.952;6.146;2022-07-23T02:46:35;16.50;;;7.20;;
31537;SDS011;18147;51.952;6.146;2022-07-23T02:49:01;15.43;;;7.03;;
31537;SDS011;18147;51.952;6.146;2022-07-23T02:51:29;6.47;;;5.07;;
31537;SDS011;18147;51.952;6.146;2022-07-23T02:54:00;7.78;;;4.47;;
31537;SDS011;18147;51.952;6.146;2022-07-23T02:56:25;6.70;;;5.18;;
31537;SDS011;18147;51.952;6.146;2022-07-23T02:58:54;7.65;;;4.88;;
31537;SDS011;18147;51.952;6.146;2022-07-23T03:01:20;7.88;;;4.72;;
31537;SDS011;18147;51.952;6.146;2022-07-23T03:03:46;8.85;;;5.30;;
31537;SDS011;18147;51.952;6.146;2022-07-23T03:06:12;8.48;;;6.45;;
31537;SDS011;18147;51.952;6.146;2022-07-23T03:08:41;11.25;;;6.55;;
31537;SDS011;18147;51.952;6.146;2022-07-23T03:11:06;10.02;;;7.15;;
31537;SDS011;18147;51.952;6.146;2022-07-23T03:13:40;13.50;;;6.35;;
31537;SDS011;18147;51.952;6.146;2022-07-23T03:16:06;9.93;;;6.32;;
31537;SDS011;18147;51.952;6.146;2022-07-23T03:18:35;9.23;;;6.60;;
31537;SDS011;18147;51.952;6.146;2022-07-23T03:21:00;7.80;;;6.10;;
31537;SDS011;18147;51.952;6.146;2022-07-23T03:23:26;9.88;;;6.10;;
31537;SDS011;18147;51.952;6.146;2022-07-23T03:25:52;12.65;;;6.03;;
31537;SDS011;18147;51.952;6.146;2022-07-23T03:28:17;9.13;;;6.25;;
31537;SDS011;18147;51.952;6.146;2022-07-23T03:30:45;7.15;;;5.20;;
31537;SDS011;18147;51.952;6.146;2022-07-23T03:33:18;9.70;;;5.80;;
31537;SDS011;18147;51.952;6.146;2022-07-23T03:35:46;7.65;;;3.83;;
31537;SDS011;18147;51.952;6.146;2022-07-23T03:38:23;10.90;;;3.25;;
31537;SDS011;18147;51.952;6.146;2022-07-23T03:40:49;4.00;;;3.08;;
31537;SDS011;18147;51.952;6.146;2022-07-23T03:43:15;2.55;;;2.35;;
31537;SDS011;18147;51.952;6.146;2022-07-23T03:45:43;7.15;;;2.08;;
31537;SDS011;18147;51.952;6.146;2022-07-23T03:48:09;2.65;;;2.40;;
31537;SDS011;18147;51.952;6.146;2022-07-23T03:50:35;5.10;;;2.80;;
31537;SDS011;18147;51.952;6.146;2022-07-23T03:53:02;7.53;;;4.78;;
31537;SDS011;18147;51.952;6.146;2022-07-23T03:55:28;5.25;;;3.83;;
31537;SDS011;18147;51.952;6.146;2022-07-23T03:57:53;7.85;;;4.70;;
31537;SDS011;18147;51.952;6.146;2022-07-23T04:00:19;9.63;;;4.28;;
31537;SDS011;18147;51.952;6.146;2022-07-23T04:02:48;11.98;;;5.63;;
31537;SDS011;18147;51.952;6.146;2022-07-23T04:05:15;8.82;;;5.45;;
31537;SDS011;18147;51.952;6.146;2022-07-23T04:07:46;8.30;;;5.13;;
31537;SDS011;18147;51.952;6.146;2022-07-23T04:10:13;6.20;;;4.15;;
31537;SDS011;18147;51.952;6.146;2022-07-23T04:12:39;7.13;;;5.38;;
31537;SDS011;18147;51.952;6.146;2022-07-23T04:15:04;10.63;;;5.80;;
31537;SDS011;18147;51.952;6.146;2022-07-23T04:17:34;14.15;;;6.43;;
31537;SDS011;18147;51.952;6.146;2022-07-23T04:20:00;7.82;;;5.63;;
31537;SDS011;18147;51.952;6.146;2022-07-23T04:22:32;10.82;;;6.07;;
31537;SDS011;18147;51.952;6.146;2022-07-23T04:24:58;10.10;;;6.07;;
31537;SDS011;18147;51.952;6.146;2022-07-23T04:27:23;8.38;;;5.43;;
31537;SDS011;18147;51.952;6.146;2022-07-23T04:29:49;9.20;;;5.88;;
31537;SDS011;18147;51.952;6.146;2022-07-23T04:32:14;13.35;;;6.05;;
31537;SDS011;18147;51.952;6.146;2022-07-23T04:34:40;9.18;;;6.07;;
31537;SDS011;18147;51.952;6.146;2022-07-23T04:37:06;12.13;;;6.93;;
31537;SDS011;18147;51.952;6.146;2022-07-23T04:39:32;10.75;;;7.05;;
31537;SDS011;18147;51.952;6.146;2022-07-23T04:41:58;11.35;;;6.35;;
31537;SDS011;18147;51.952;6.146;2022-07-23T04:44:23;8.40;;;5.70;;
31537;SDS011;18147;51.952;6.146;2022-07-23T04:46:50;7.05;;;5.13;;
31537;SDS011;18147;51.952;6.146;2022-07-23T04:49:17;10.80;;;6.53;;
31537;SDS011;18147;51.952;6.146;2022-07-23T04:51:42;12.68;;;7.03;;
31537;SDS011;18147;51.952;6.146;2022-07-23T04:54:11;12.68;;;6.72;;
31537;SDS011;18147;51.952;6.146;2022-07-23T04:56:37;14.77;;;7.25;;
31537;SDS011;18147;51.952;6.146;2022-07-23T04:59:04;17.75;;;6.22;;
31537;SDS011;18147;51.952;6.146;2022-07-23T05:01:29;10.90;;;6.22;;
31537;SDS011;18147;51.952;6.146;2022-07-23T05:03:55;11.05;;;5.72;;
31537;SDS011;18147;51.952;6.146;2022-07-23T05:06:22;13.52;;;6.10;;
31537;SDS011;18147;51.952;6.146;2022-07-23T05:08:48;12.43;;;6.68;;
31537;SDS011;18147;51.952;6.146;2022-07-23T05:11:13;14.05;;;6.65;;
31537;SDS011;18147;51.952;6.146;2022-07-23T05:13:39;11.85;;;7.05;;
31537;SDS011;18147;51.952;6.146;2022-07-23T05:16:06;9.52;;;6.50;;
31537;SDS011;18147;51.952;6.146;2022-07-23T05:18:32;12.90;;;6.38;;
31537;SDS011;18147;51.952;6.146;2022-07-23T05:20:58;10.20;;;5.97;;
31537;SDS011;18147;51.952;6.146;2022-07-23T05:23:23;12.20;;;5.57;;
31537;SDS011;18147;51.952;6.146;2022-07-23T05:25:49;11.98;;;6.55;;
31537;SDS011;18147;51.952;6.146;2022-07-23T05:28:15;10.25;;;6.47;;
31537;SDS011;18147;51.952;6.146;2022-07-23T05:30:41;14.32;;;6.63;;
31537;SDS011;18147;51.952;6.146;2022-07-23T05:33:11;14.57;;;7.40;;
31537;SDS011;18147;51.952;6.146;2022-07-23T05:35:38;11.38;;;7.15;;
31537;SDS011;18147;51.952;6.146;2022-07-23T05:38:17;11.20;;;6.13;;
31537;SDS011;18147;51.952;6.146;2022-07-23T05:40:47;14.27;;;6.32;;
31537;SDS011;18147;51.952;6.146;2022-07-23T05:43:13;13.02;;;7.10;;
31537;SDS011;18147;51.952;6.146;2022-07-23T05:45:38;12.93;;;6.65;;
31537;SDS011;18147;51.952;6.146;2022-07-23T05:48:04;14.93;;;7.22;;
31537;SDS011;18147;51.952;6.146;2022-07-23T05:50:35;9.32;;;5.82;;
31537;SDS011;18147;51.952;6.146;2022-07-23T05:53:26;11.07;;;6.30;;
31537;SDS011;18147;51.952;6.146;2022-07-23T05:55:58;13.82;;;6.00;;
31537;SDS011;18147;51.952;6.146;2022-07-23T05:58:28;12.13;;;6.05;;
31537;SDS011;18147;51.952;6.146;2022-07-23T06:00:54;11.07;;;5.72;;
31537;SDS011;18147;51.952;6.146;2022-07-23T06:03:21;13.25;;;5.68;;
31537;SDS011;18147;51.952;6.146;2022-07-23T06:05:46;12.85;;;5.95;;
31537;SDS011;18147;51.952;6.146;2022-07-23T06:08:12;11.88;;;5.88;;
31537;SDS011;18147;51.952;6.146;2022-07-23T06:10:38;11.88;;;5.70;;
31537;SDS011;18147;51.952;6.146;2022-07-23T06:13:04;7.05;;;4.45;;
31537;SDS011;18147;51.952;6.146;2022-07-23T06:15:30;7.95;;;5.30;;
31537;SDS011;18147;51.952;6.146;2022-07-23T06:17:55;7.72;;;4.50;;
31537;SDS011;18147;51.952;6.146;2022-07-23T06:20:22;9.20;;;4.97;;
31537;SDS011;18147;51.952;6.146;2022-07-23T06:22:47;6.88;;;4.57;;
31537;SDS011;18147;51.952;6.146;2022-07-23T06:25:13;8.73;;;4.50;;
31537;SDS011;18147;51.952;6.146;2022-07-23T06:27:41;9.90;;;5.20;;
31537;SDS011;18147;51.952;6.146;2022-07-23T06:30:06;13.50;;;5.32;;
31537;SDS011;18147;51.952;6.146;2022-07-23T06:32:33;9.48;;;4.93;;
31537;SDS011;18147;51.952;6.146;2022-07-23T06:34:59;8.05;;;4.60;;
31537;SDS011;18147;51.952;6.146;2022-07-23T06:37:26;8.70;;;4.93;;
31537;SDS011;18147;51.952;6.146;2022-07-23T06:39:52;7.55;;;5.10;;
31537;SDS011;18147;51.952;6.146;2022-07-23T06:42:18;8.05;;;4.95;;
31537;SDS011;18147;51.952;6.146;2022-07-23T06:44:44;10.32;;;5.40;;
31537;SDS011;18147;51.952;6.146;2022-07-23T06:47:10;6.40;;;4.80;;
31537;SDS011;18147;51.952;6.146;2022-07-23T06:49:36;11.05;;;4.72;;
31537;SDS011;18147;51.952;6.146;2022-07-23T06:52:02;9.15;;;5.28;;
31537;SDS011;18147;51.952;6.146;2022-07-23T06:54:27;8.18;;;4.53;;
31537;SDS011;18147;51.952;6.146;2022-07-23T06:56:53;14.48;;;4.35;;
31537;SDS011;18147;51.952;6.146;2022-07-23T06:59:18;6.15;;;4.30;;
31537;SDS011;18147;51.952;6.146;2022-07-23T07:01:46;9.57;;;4.63;;
31537;SDS011;18147;51.952;6.146;2022-07-23T07:04:12;5.32;;;4.10;;
31537;SDS011;18147;51.952;6.146;2022-07-23T07:06:38;5.57;;;4.60;;
31537;SDS011;18147;51.952;6.146;2022-07-23T07:09:04;8.27;;;4.25;;
31537;SDS011;18147;51.952;6.146;2022-07-23T07:11:30;5.20;;;3.75;;
31537;SDS011;18147;51.952;6.146;2022-07-23T07:13:55;5.82;;;4.32;;
31537;SDS011;18147;51.952;6.146;2022-07-23T07:16:21;5.25;;;3.20;;
31537;SDS011;18147;51.952;6.146;2022-07-23T07:18:47;3.30;;;2.95;;
31537;SDS011;18147;51.952;6.146;2022-07-23T07:21:13;8.10;;;3.40;;
31537;SDS011;18147;51.952;6.146;2022-07-23T07:23:38;4.63;;;3.10;;
31537;SDS011;18147;51.952;6.146;2022-07-23T07:26:04;4.07;;;3.20;;
31537;SDS011;18147;51.952;6.146;2022-07-23T07:28:30;6.30;;;3.38;;
31537;SDS011;18147;51.952;6.146;2022-07-23T07:30:56;5.03;;;3.45;;
31537;SDS011;18147;51.952;6.146;2022-07-23T07:33:22;3.88;;;2.45;;
31537;SDS011;18147;51.952;6.146;2022-07-23T07:35:47;4.65;;;2.67;;
31537;SDS011;18147;51.952;6.146;2022-07-23T07:38:13;5.20;;;3.00;;
31537;SDS011;18147;51.952;6.146;2022-07-23T07:40:39;6.97;;;3.50;;
31537;SDS011;18147;51.952;6.146;2022-07-23T07:43:04;8.15;;;2.95;;
31537;SDS011;18147;51.952;6.146;2022-07-23T07:45:30;5.15;;;3.70;;
31537;SDS011;18147;51.952;6.146;2022-07-23T07:47:57;4.70;;;3.13;;
31537;SDS011;18147;51.952;6.146;2022-07-23T07:50:25;4.28;;;3.40;;
31537;SDS011;18147;51.952;6.146;2022-07-23T07:52:51;10.70;;;3.78;;
31537;SDS011;18147;51.952;6.146;2022-07-23T07:55:19;8.02;;;3.88;;
31537;SDS011;18147;51.952;6.146;2022-07-23T07:57:45;6.55;;;3.88;;
31537;SDS011;18147;51.952;6.146;2022-07-23T08:00:10;9.13;;;3.40;;
31537;SDS011;18147;51.952;6.146;2022-07-23T08:02:43;5.20;;;3.78;;
31537;SDS011;18147;51.952;6.146;2022-07-23T08:05:11;6.97;;;3.55;;
31537;SDS011;18147;51.952;6.146;2022-07-23T08:07:37;11.32;;;3.50;;
31537;SDS011;18147;51.952;6.146;2022-07-23T08:10:06;7.18;;;3.28;;
31537;SDS011;18147;51.952;6.146;2022-07-23T08:15:06;6.55;;;3.30;;
31537;SDS011;18147;51.952;6.146;2022-07-23T08:17:33;9.57;;;3.35;;
31537;SDS011;18147;51.952;6.146;2022-07-23T08:20:02;8.27;;;3.53;;
31537;SDS011;18147;51.952;6.146;2022-07-23T08:22:41;5.47;;;3.28;;
31537;SDS011;18147;51.952;6.146;2022-07-23T08:25:08;5.05;;;3.30;;
31537;SDS011;18147;51.952;6.146;2022-07-23T08:27:36;7.53;;;2.50;;
31537;SDS011;18147;51.952;6.146;2022-07-23T08:30:02;6.55;;;2.75;;
31537;SDS011;18147;51.952;6.146;2022-07-23T08:32:29;3.05;;;2.70;;
31537;SDS011;18147;51.952;6.146;2022-07-23T08:34:54;3.88;;;2.22;;
31537;SDS011;18147;51.952;6.146;2022-07-23T08:37:20;7.18;;;3.10;;
31537;SDS011;18147;51.952;6.146;2022-07-23T08:39:45;8.68;;;2.70;;
31537;SDS011;18147;51.952;6.146;2022-07-23T08:42:12;7.72;;;3.20;;
31537;SDS011;18147;51.952;6.146;2022-07-23T08:44:40;5.05;;;2.97;;
31537;SDS011;18147;51.952;6.146;2022-07-23T08:47:10;6.07;;;2.75;;
31537;SDS011;18147;51.952;6.146;2022-07-23T08:49:36;5.88;;;2.53;;
31537;SDS011;18147;51.952;6.146;2022-07-23T08:52:03;8.73;;;2.67;;
31537;SDS011;18147;51.952;6.146;2022-07-23T08:54:30;6.20;;;2.30;;
31537;SDS011;18147;51.952;6.146;2022-07-23T08:56:56;6.00;;;2.30;;
31537;SDS011;18147;51.952;6.146;2022-07-23T08:59:22;7.43;;;2.20;;
31537;SDS011;18147;51.952;6.146;2022-07-23T09:01:47;4.80;;;2.50;;
31537;SDS011;18147;51.952;6.146;2022-07-23T09:04:13;7.85;;;2.58;;
31537;SDS011;18147;51.952;6.146;2022-07-23T09:06:39;2.95;;;2.47;;
31537;SDS011;18147;51.952;6.146;2022-07-23T09:09:17;4.13;;;2.55;;
31537;SDS011;18147;51.952;6.146;2022-07-23T09:12:01;6.53;;;3.25;;
31537;SDS011;18147;51.952;6.146;2022-07-23T09:14:38;3.60;;;2.47;;
31537;SDS011;18147;51.952;6.146;2022-07-23T09:17:12;3.75;;;2.40;;
31537;SDS011;18147;51.952;6.146;2022-07-23T09:19:39;5.30;;;2.53;;
31537;SDS011;18147;51.952;6.146;2022-07-23T09:22:26;4.88;;;2.30;;
31537;SDS011;18147;51.952;6.146;2022-07-23T09:25:06;5.45;;;2.47;;
31537;SDS011;18147;51.952;6.146;2022-07-23T09:30:28;6.47;;;2.23;;
31537;SDS011;18147;51.952;6.146;2022-07-23T09:33:11;2.45;;;1.98;;
31537;SDS011;18147;51.952;6.146;2022-07-23T09:38:13;9.77;;;3.58;;
31537;SDS011;18147;51.952;6.146;2022-07-23T09:40:39;4.90;;;2.72;;
31537;SDS011;18147;51.952;6.146;2022-07-23T09:43:05;5.00;;;2.03;;
31537;SDS011;18147;51.952;6.146;2022-07-23T09:45:31;3.70;;;1.90;;
31537;SDS011;18147;51.952;6.146;2022-07-23T09:48:15;4.13;;;2.17;;
31537;SDS011;18147;51.952;6.146;2022-07-23T09:50:42;4.50;;;2.20;;
31537;SDS011;18147;51.952;6.146;2022-07-23T09:53:09;4.15;;;2.00;;
31537;SDS011;18147;51.952;6.146;2022-07-23T09:55:49;4.80;;;3.28;;
31537;SDS011;18147;51.952;6.146;2022-07-23T09:58:21;6.18;;;3.30;;
31537;SDS011;18147;51.952;6.146;2022-07-23T10:00:48;6.35;;;2.83;;
31537;SDS011;18147;51.952;6.146;2022-07-23T10:03:15;4.30;;;2.80;;
31537;SDS011;18147;51.952;6.146;2022-07-23T10:06:01;3.95;;;2.30;;
31537;SDS011;18147;51.952;6.146;2022-07-23T10:08:27;4.13;;;2.67;;
31537;SDS011;18147;51.952;6.146;2022-07-23T10:11:12;4.68;;;2.67;;
31537;SDS011;18147;51.952;6.146;2022-07-23T10:14:03;3.67;;;2.33;;
31537;SDS011;18147;51.952;6.146;2022-07-23T10:16:54;5.55;;;2.35;;
31537;SDS011;18147;51.952;6.146;2022-07-23T10:19:19;3.97;;;2.78;;
31537;SDS011;18147;51.952;6.146;2022-07-23T10:21:49;3.72;;;2.17;;
31537;SDS011;18147;51.952;6.146;2022-07-23T10:24:25;3.70;;;2.25;;
31537;SDS011;18147;51.952;6.146;2022-07-23T10:30:09;2.35;;;1.92;;
31537;SDS011;18147;51.952;6.146;2022-07-23T10:35:30;7.57;;;2.50;;
31537;SDS011;18147;51.952;6.146;2022-07-23T10:41:00;5.07;;;2.20;;
31537;SDS011;18147;51.952;6.146;2022-07-23T10:43:28;4.40;;;2.00;;
31537;SDS011;18147;51.952;6.146;2022-07-23T10:45:54;6.25;;;2.33;;
31537;SDS011;18147;51.952;6.146;2022-07-23T10:48:21;4.72;;;2.13;;
31537;SDS011;18147;51.952;6.146;2022-07-23T10:59:29;2.08;;;1.88;;
31537;SDS011;18147;51.952;6.146;2022-07-23T11:01:54;3.20;;;2.20;;
31537;SDS011;18147;51.952;6.146;2022-07-23T11:04:47;2.38;;;2.17;;
31537;SDS011;18147;51.952;6.146;2022-07-23T11:07:15;2.80;;;2.28;;
31537;SDS011;18147;51.952;6.146;2022-07-23T11:09:44;6.30;;;2.47;;
31537;SDS011;18147;51.952;6.146;2022-07-23T11:17:29;3.35;;;2.50;;
31537;SDS011;18147;51.952;6.146;2022-07-23T11:22:38;10.68;;;2.65;;
31537;SDS011;18147;51.952;6.146;2022-07-23T11:25:06;5.10;;;2.20;;
31537;SDS011;18147;51.952;6.146;2022-07-23T11:27:41;3.65;;;2.53;;
31537;SDS011;18147;51.952;6.146;2022-07-23T11:30:10;2.55;;;2.20;;
31537;SDS011;18147;51.952;6.146;2022-07-23T11:35:37;2.70;;;2.10;;
31537;SDS011;18147;51.952;6.146;2022-07-23T11:38:14;4.25;;;2.08;;
31537;SDS011;18147;51.952;6.146;2022-07-23T11:40:47;3.95;;;2.45;;
31537;SDS011;18147;51.952;6.146;2022-07-23T11:43:21;2.70;;;2.13;;
31537;SDS011;18147;51.952;6.146;2022-07-23T11:45:54;3.28;;;2.13;;
31537;SDS011;18147;51.952;6.146;2022-07-23T11:50:50;5.85;;;2.10;;
31537;SDS011;18147;51.952;6.146;2022-07-23T11:56:10;2.67;;;1.95;;
31537;SDS011;18147;51.952;6.146;2022-07-23T11:58:36;2.13;;;2.00;;
31537;SDS011;18147;51.952;6.146;2022-07-23T12:01:06;4.20;;;2.40;;
31537;SDS011;18147;51.952;6.146;2022-07-23T12:03:31;5.78;;;2.90;;
31537;SDS011;18147;51.952;6.146;2022-07-23T12:05:58;4.57;;;2.17;;
31537;SDS011;18147;51.952;6.146;2022-07-23T12:08:24;2.55;;;2.00;;
31537;SDS011;18147;51.952;6.146;2022-07-23T12:10:50;4.35;;;2.25;;
31537;SDS011;18147;51.952;6.146;2022-07-23T12:13:19;4.57;;;2.55;;
31537;SDS011;18147;51.952;6.146;2022-07-23T12:15:48;8.00;;;3.33;;
31537;SDS011;18147;51.952;6.146;2022-07-23T12:18:17;2.60;;;2.40;;
31537;SDS011;18147;51.952;6.146;2022-07-23T12:20:48;4.22;;;2.10;;
31537;SDS011;18147;51.952;6.146;2022-07-23T12:23:16;3.25;;;2.80;;
31537;SDS011;18147;51.952;6.146;2022-07-23T12:25:43;8.73;;;2.95;;
31537;SDS011;18147;51.952;6.146;2022-07-23T12:30:51;3.13;;;2.22;;
31537;SDS011;18147;51.952;6.146;2022-07-23T12:33:25;2.95;;;2.30;;
31537;SDS011;18147;51.952;6.146;2022-07-23T12:35:56;4.15;;;1.98;;
31537;SDS011;18147;51.952;6.146;2022-07-23T12:38:23;6.50;;;2.60;;
31537;SDS011;18147;51.952;6.146;2022-07-23T12:40:51;4.10;;;2.70;;
31537;SDS011;18147;51.952;6.146;2022-07-23T12:45:48;4.75;;;2.85;;
31537;SDS011;18147;51.952;6.146;2022-07-23T12:48:20;4.72;;;2.33;;
31537;SDS011;18147;51.952;6.146;2022-07-23T12:53:42;4.82;;;2.40;;
31537;SDS011;18147;51.952;6.146;2022-07-23T12:56:13;2.88;;;2.10;;
31537;SDS011;18147;51.952;6.146;2022-07-23T13:00:07;4.30;;;2.45;;
31537;SDS011;18147;51.952;6.146;2022-07-23T13:02:46;3.42;;;2.50;;
31537;SDS011;18147;51.952;6.146;2022-07-23T13:05:11;3.42;;;2.40;;
31537;SDS011;18147;51.952;6.146;2022-07-23T13:07:37;4.18;;;2.58;;
31537;SDS011;18147;51.952;6.146;2022-07-23T13:10:02;11.32;;;3.28;;
31537;SDS011;18147;51.952;6.146;2022-07-23T13:12:28;4.47;;;2.72;;
31537;SDS011;18147;51.952;6.146;2022-07-23T13:14:54;2.95;;;2.38;;
31537;SDS011;18147;51.952;6.146;2022-07-23T13:17:19;4.50;;;2.50;;
31537;SDS011;18147;51.952;6.146;2022-07-23T13:19:44;6.80;;;2.67;;
31537;SDS011;18147;51.952;6.146;2022-07-23T13:22:10;4.60;;;2.53;;
31537;SDS011;18147;51.952;6.146;2022-07-23T13:24:35;3.40;;;2.90;;
31537;SDS011;18147;51.952;6.146;2022-07-23T13:27:01;3.85;;;2.78;;
31537;SDS011;18147;51.952;6.146;2022-07-23T13:29:26;3.88;;;2.80;;
31537;SDS011;18147;51.952;6.146;2022-07-23T13:31:52;6.57;;;2.83;;
31537;SDS011;18147;51.952;6.146;2022-07-23T13:34:17;3.30;;;2.83;;
31537;SDS011;18147;51.952;6.146;2022-07-23T13:36:43;4.40;;;2.85;;
31537;SDS011;18147;51.952;6.146;2022-07-23T13:39:09;6.50;;;2.35;;
31537;SDS011;18147;51.952;6.146;2022-07-23T13:41:34;7.85;;;3.17;;
31537;SDS011;18147;51.952;6.146;2022-07-23T13:44:00;4.65;;;2.67;;
31537;SDS011;18147;51.952;6.146;2022-07-23T13:46:25;3.72;;;3.15;;
31537;SDS011;18147;51.952;6.146;2022-07-23T13:48:51;3.33;;;2.45;;
31537;SDS011;18147;51.952;6.146;2022-07-23T13:51:16;4.75;;;2.70;;
31537;SDS011;18147;51.952;6.146;2022-07-23T13:53:43;5.07;;;3.00;;
31537;SDS011;18147;51.952;6.146;2022-07-23T13:56:11;7.65;;;2.80;;
31537;SDS011;18147;51.952;6.146;2022-07-23T13:58:36;11.32;;;3.47;;
31537;SDS011;18147;51.952;6.146;2022-07-23T14:01:05;6.07;;;3.50;;
31537;SDS011;18147;51.952;6.146;2022-07-23T14:03:31;4.18;;;2.80;;
31537;SDS011;18147;51.952;6.146;2022-07-23T14:05:57;3.42;;;2.80;;
31537;SDS011;18147;51.952;6.146;2022-07-23T14:08:26;5.40;;;2.47;;
31537;SDS011;18147;51.952;6.146;2022-07-23T14:10:52;4.40;;;2.35;;
31537;SDS011;18147;51.952;6.146;2022-07-23T14:13:17;4.50;;;2.65;;
31537;SDS011;18147;51.952;6.146;2022-07-23T14:15:46;4.75;;;2.80;;
31537;SDS011;18147;51.952;6.146;2022-07-23T14:18:11;4.47;;;2.50;;
31537;SDS011;18147;51.952;6.146;2022-07-23T14:20:37;5.53;;;2.38;;
31537;SDS011;18147;51.952;6.146;2022-07-23T14:23:02;3.75;;;2.85;;
31537;SDS011;18147;51.952;6.146;2022-07-23T14:25:28;4.70;;;2.78;;
31537;SDS011;18147;51.952;6.146;2022-07-23T14:27:53;6.63;;;3.72;;
31537;SDS011;18147;51.952;6.146;2022-07-23T14:30:19;6.05;;;2.58;;
31537;SDS011;18147;51.952;6.146;2022-07-23T14:32:45;3.92;;;2.30;;
31537;SDS011;18147;51.952;6.146;2022-07-23T14:35:10;8.23;;;2.78;;
31537;SDS011;18147;51.952;6.146;2022-07-23T14:37:36;8.25;;;3.08;;
31537;SDS011;18147;51.952;6.146;2022-07-23T14:40:01;2.58;;;2.38;;
31537;SDS011;18147;51.952;6.146;2022-07-23T14:42:27;3.55;;;2.72;;
31537;SDS011;18147;51.952;6.146;2022-07-23T14:44:53;2.92;;;2.50;;
31537;SDS011;18147;51.952;6.146;2022-07-23T14:47:19;4.60;;;2.85;;
31537;SDS011;18147;51.952;6.146;2022-07-23T14:49:44;4.97;;;2.88;;
31537;SDS011;18147;51.952;6.146;2022-07-23T14:52:10;5.35;;;2.47;;
31537;SDS011;18147;51.952;6.146;2022-07-23T14:54:35;11.48;;;3.00;;
31537;SDS011;18147;51.952;6.146;2022-07-23T14:57:01;2.90;;;2.47;;
31537;SDS011;18147;51.952;6.146;2022-07-23T14:59:27;4.15;;;2.90;;
31537;SDS011;18147;51.952;6.146;2022-07-23T15:01:55;5.43;;;2.97;;
31537;SDS011;18147;51.952;6.146;2022-07-23T15:04:21;2.45;;;2.20;;
31537;SDS011;18147;51.952;6.146;2022-07-23T15:06:47;2.83;;;2.58;;
31537;SDS011;18147;51.952;6.146;2022-07-23T15:09:13;6.03;;;3.08;;
31537;SDS011;18147;51.952;6.146;2022-07-23T15:11:39;5.47;;;2.58;;
31537;SDS011;18147;51.952;6.146;2022-07-23T15:14:05;4.40;;;2.28;;
31537;SDS011;18147;51.952;6.146;2022-07-23T15:16:32;4.30;;;2.45;;
31537;SDS011;18147;51.952;6.146;2022-07-23T15:18:58;4.43;;;2.90;;
31537;SDS011;18147;51.952;6.146;2022-07-23T15:21:23;4.43;;;2.85;;
31537;SDS011;18147;51.952;6.146;2022-07-23T15:23:49;3.55;;;2.53;;
31537;SDS011;18147;51.952;6.146;2022-07-23T15:26:15;6.75;;;2.92;;
31537;SDS011;18147;51.952;6.146;2022-07-23T15:28:40;4.03;;;2.65;;
31537;SDS011;18147;51.952;6.146;2022-07-23T15:31:06;5.25;;;3.10;;
31537;SDS011;18147;51.952;6.146;2022-07-23T15:33:32;3.03;;;2.50;;
31537;SDS011;18147;51.952;6.146;2022-07-23T15:35:58;4.75;;;2.50;;
31537;SDS011;18147;51.952;6.146;2022-07-23T15:38:24;7.50;;;2.90;;